»·PEaware :: DAL2665 KLAS-KSLC

DAL2665 :: KLAS-KSLC

FLIGHT INFORMATION

Flight Status: Arrived
Operator:
Delta Air Lines
More flights by this operator :: More flights under this callsign
Pilot: Alfredo R. (12181)
Aircraft: BOEING 737-700
(B737)
More flights by this aircraft type
Origin: KLAS McCarran Intl
United States
Destination: KSLC Salt Lake City Intl
United States
More flights between these airports :: More routes between these airports
Route: STAAV8 MLF QWENN5
File this flight plan on PilotEdge
Remarks:
Altitude:
(Current/Filed)
310ft
Speed:
(Current/Filed)
425kts
Departed: 02-Jun-20 05:51 PM
Arrived: 02-Jun-20 06:51 PM
Distance/Time
Traveled:
319nm/1:00
Distance/Time
To Go:
Arrived

Flight Plot

Page will automatically refresh every two minutes.

Flight plan parsing failed; only flown route is shown


Map Options




Map Legend


Flown Route
Filed Route
Departure Airport
Arrival Airport
Navaid (VOR, NDB)
Fix

Horizontal Profiles

Position Reports

Time Latitude Longitude Heading Altitude Ground
Speed
02-Jun-20 17:11 36.079850 -115.139537 0 2073ft 0kts
02-Jun-20 17:12 36.079850 -115.139537 355 2073ft 0kts
02-Jun-20 17:13 36.079850 -115.139537 355 2073ft 0kts
02-Jun-20 17:14 36.079850 -115.139537 355 2073ft 0kts
02-Jun-20 17:15 36.079850 -115.139537 355 2073ft 0kts
02-Jun-20 17:16 36.079850 -115.139537 355 2073ft 0kts
02-Jun-20 17:17 36.079850 -115.139537 355 2073ft 0kts
02-Jun-20 17:19 36.079850 -115.139537 355 2073ft 0kts
02-Jun-20 17:20 36.079850 -115.139537 355 2073ft 0kts
02-Jun-20 17:21 36.079850 -115.139537 355 2073ft 0kts
02-Jun-20 17:22 36.079850 -115.139537 355 2073ft 0kts
02-Jun-20 17:23 36.079850 -115.139537 355 2073ft 0kts
02-Jun-20 17:24 36.079850 -115.139537 355 2073ft 0kts
02-Jun-20 17:25 36.079850 -115.139537 355 2073ft 0kts
02-Jun-20 17:26 36.079850 -115.139537 355 2073ft 0kts
02-Jun-20 17:27 36.079850 -115.139537 355 2073ft 0kts
02-Jun-20 17:28 36.079850 -115.139537 355 2073ft 0kts
02-Jun-20 17:29 36.079850 -115.139537 355 2073ft 0kts
02-Jun-20 17:30 36.079850 -115.139537 355 2073ft 0kts
02-Jun-20 17:31 36.079850 -115.139537 355 2073ft 0kts
02-Jun-20 17:32 36.079850 -115.139537 355 2073ft 0kts
02-Jun-20 17:33 36.079850 -115.139537 355 2073ft 0kts
02-Jun-20 17:34 36.079850 -115.139537 355 2073ft 0kts
02-Jun-20 17:35 36.079850 -115.139537 355 2073ft 0kts
02-Jun-20 17:35 36.079637 -115.139490 358 2074ft 2kts
02-Jun-20 17:37 36.079350 -115.138925 222 2073ft 2kts
02-Jun-20 17:38 36.079175 -115.139166 219 2074ft 3kts
02-Jun-20 17:38 36.079082 -115.139272 225 2075ft 0kts
02-Jun-20 17:39 36.079082 -115.139272 225 2075ft 0kts
02-Jun-20 17:41 36.079082 -115.139272 225 2075ft 0kts
02-Jun-20 17:41 36.079082 -115.139272 225 2075ft 0kts
02-Jun-20 17:42 36.078627 -115.139537 177 2076ft 4kts
02-Jun-20 17:43 36.078247 -115.136040 89 2067ft 19kts
02-Jun-20 17:44 36.078251 -115.128033 90 2044ft 26kts
02-Jun-20 17:45 36.077861 -115.122137 129 2036ft 10kts
02-Jun-20 17:46 36.077364 -115.121438 149 2037ft 0kts
02-Jun-20 17:47 36.077364 -115.121438 149 2037ft 0kts
02-Jun-20 17:48 36.077364 -115.121438 149 2037ft 0kts
02-Jun-20 17:49 36.076432 -115.121577 254 2038ft 1kts
02-Jun-20 17:50 36.076386 -115.127483 270 2047ft 60kts
02-Jun-20 17:51 36.076580 -115.178745 272 3239ft 183kts
02-Jun-20 17:52 36.078354 -115.254634 286 5375ft 246kts
02-Jun-20 17:53 36.137222 -115.295940 11 8879ft 264kts
02-Jun-20 17:54 36.185303 -115.222940 70 10897ft 324kts
02-Jun-20 17:55 36.197178 -115.108951 90 13972ft 346kts
02-Jun-20 17:56 36.198378 -114.990202 91 17270ft 360kts
02-Jun-20 17:57 36.201606 -114.865420 83 18952ft 371kts
02-Jun-20 17:58 36.245164 -114.747718 51 18964ft 380kts
02-Jun-20 17:59 36.325687 -114.662912 37 18963ft 375kts
02-Jun-20 18:00 36.410285 -114.582389 37 20786ft 390kts
02-Jun-20 18:01 36.499674 -114.497633 38 23289ft 410kts
02-Jun-20 18:02 36.595397 -114.415751 32 25604ft 426kts
02-Jun-20 18:03 36.699041 -114.335798 33 27741ft 441kts
02-Jun-20 18:04 36.805087 -114.253526 32 29650ft 455kts
02-Jun-20 18:05 36.916188 -114.167040 32 31050ft 472kts
02-Jun-20 18:06 37.031123 -114.077205 32 31065ft 481kts
02-Jun-20 18:07 37.145055 -113.987862 32 31061ft 479kts
02-Jun-20 18:08 37.258610 -113.898478 32 31063ft 481kts
02-Jun-20 18:09 37.372822 -113.808245 31 31064ft 480kts
02-Jun-20 18:10 37.488902 -113.716246 31 31065ft 480kts
02-Jun-20 18:11 37.603447 -113.625084 31 31142ft 478kts
02-Jun-20 18:12 37.716985 -113.534402 31 31249ft 481kts
02-Jun-20 18:13 37.832308 -113.441941 31 31252ft 481kts
02-Jun-20 18:14 37.946828 -113.349783 31 31253ft 480kts
02-Jun-20 18:15 38.059984 -113.258454 31 31246ft 480kts
02-Jun-20 18:16 38.174514 -113.165618 31 31189ft 477kts
02-Jun-20 18:17 38.288333 -113.073003 31 31190ft 479kts
02-Jun-20 18:18 38.405526 -112.989148 21 31193ft 477kts
02-Jun-20 18:19 38.529402 -112.923234 21 31190ft 477kts
02-Jun-20 18:20 38.651808 -112.857791 21 31193ft 477kts
02-Jun-20 18:21 38.776409 -112.790917 20 30558ft 467kts
02-Jun-20 18:22 38.896644 -112.726027 21 29558ft 468kts
02-Jun-20 18:23 39.018770 -112.659932 21 28564ft 467kts
02-Jun-20 18:24 39.141429 -112.593328 20 27097ft 454kts
02-Jun-20 18:25 39.258426 -112.529580 20 25504ft 457kts
02-Jun-20 18:26 39.377012 -112.462786 21 23904ft 463kts
02-Jun-20 18:27 39.499061 -112.392629 21 22257ft 464kts
02-Jun-20 18:28 39.618472 -112.323869 22 20648ft 466kts
02-Jun-20 18:29 39.738117 -112.254534 22 19008ft 453kts
02-Jun-20 18:30 39.847617 -112.190949 22 17344ft 397kts
02-Jun-20 18:31 39.943811 -112.134935 22 15904ft 365kts
02-Jun-20 18:32 40.035096 -112.080357 23 14508ft 356kts
02-Jun-20 18:33 40.124290 -112.026433 23 13095ft 346kts
02-Jun-20 18:34 40.211455 -111.973612 23 11681ft 339kts
02-Jun-20 18:35 40.301452 -111.963299 351 11028ft 330kts
02-Jun-20 18:36 40.386167 -111.977319 351 10776ft 302kts
02-Jun-20 18:37 40.468199 -111.991194 351 9767ft 292kts
02-Jun-20 18:38 40.547089 -112.004868 351 8753ft 272kts
02-Jun-20 18:39 40.619738 -112.017474 351 8039ft 251kts
02-Jun-20 18:40 40.685369 -112.028869 351 7947ft 237kts
02-Jun-20 18:41 40.748244 -112.040211 351 7173ft 217kts
02-Jun-20 18:42 40.810960 -112.050766 351 7209ft 231kts
02-Jun-20 18:43 40.875693 -112.059619 351 7487ft 235kts
02-Jun-20 18:44 40.940663 -112.068043 351 7490ft 206kts
02-Jun-20 18:45 40.982461 -112.038519 104 6613ft 212kts
02-Jun-20 18:46 40.933288 -112.013633 178 6025ft 206kts
02-Jun-20 18:47 40.880942 -112.007827 176 5743ft 188kts
02-Jun-20 18:48 40.832571 -112.002179 174 4893ft 160kts
02-Jun-20 18:49 40.791924 -111.997405 175 4235ft 91kts
02-Jun-20 18:50 40.784310 -111.993594 91 4235ft 13kts
02-Jun-20 18:51 40.787228 -111.992533 354 4235ft 18kts
02-Jun-20 18:52 40.791180 -111.990681 85 4235ft 24kts
02-Jun-20 18:53 40.789983 -111.985618 146 4235ft 6kts
02-Jun-20 18:54 40.789300 -111.985282 161 4235ft 0kts

Navigation Log

Ident Type
Flight plan parsing failed, navigation log unavailable